Terminal Aerodrome Forecast
Issued by NWS

Home | Current Version | Previous Version | Text Only | Print | Product List | Glossary On
Versions: 1 2 3 4 5 6 7 8 9 10 11 12 13 14 15 16 17 18 19 20 21 22 23 24 25 26
150
FTUS41 KILN 010520
TAFLUK
TAF
KLUK 010520Z 0106/0206 18008KT 4SM -SHRA BKN009
     FM010800 18006KT 4SM BR OVC008
     FM011500 23005KT P6SM SCT008 BKN028 BKN040
     FM012000 26005KT P6SM VCSH SCT028 BKN040
      TEMPO 0120/0124 P6SM -SHRA SCT025 BKN035
     FM020200 21005KT P6SM SCT050 BKN080=

USA.gov is the U.S. government's official web portal to all federal, state and local government web resources and services.